Time;durP1;ratioP1;P1;durP2;ratioP2;P2;SDS_P1;SDS_P2;PMS_P1;PMS_P2;Temp;Humidity;BMP_temperature;BMP_pressure;BME280_temperature;BME280_humidity;BME280_pressure;Samples;Min_cycle;Max_cycle;Signal;HPM_P1;HPM_P2
2023/06/08 00:01:25;;;;;;;;;;;19.40;66.00;;;;;;5031113;28;920;-70
2023/06/08 00:03:52;;;;;;;;;;;19.40;66.00;;;;;;5030952;28;1616;-70
2023/06/08 00:06:20;;;;;;;;;;;19.40;66.00;;;;;;5030162;28;844;-71
2023/06/08 00:08:46;;;;;;;;;;;19.50;66.10;;;;;;5032027;28;861;-71
2023/06/08 00:11:12;;;;;;;;;;;19.40;66.00;;;;;;5029885;28;939;-71
2023/06/08 00:13:37;;;;;;;;;;;19.40;66.00;;;;;;5027256;28;1536;-70
2023/06/08 00:16:04;;;;;;;;;;;19.40;66.00;;;;;;5030641;28;1910;-71
2023/06/08 00:18:30;;;;;;;;;;;19.40;66.00;;;;;;5031569;28;1175;-71
2023/06/08 00:21:00;;;;;;;;;;;19.40;66.00;;;;;;5027950;28;879;-70
2023/06/08 00:23:26;;;;;;;;;;;19.40;66.00;;;;;;5030103;28;1260;-70
2023/06/08 00:25:51;;;;;;;;;;;19.40;66.00;;;;;;5030693;28;875;-70
2023/06/08 00:28:18;;;;;;;;;;;19.40;66.00;;;;;;5029647;28;1058;-68
2023/06/08 00:30:43;;;;;;;;;;;19.40;66.00;;;;;;5028038;28;895;-70
2023/06/08 00:33:09;;;;;;;;;;;19.40;66.00;;;;;;5029794;28;1295;-70
2023/06/08 00:35:34;;;;;;;;;;;19.40;66.00;;;;;;5028518;28;1989;-71
2023/06/08 00:38:00;;;;;;;;;;;19.40;66.00;;;;;;5029974;28;876;-71
2023/06/08 00:40:25;;;;;;;;;;;19.40;66.10;;;;;;5029738;28;970;-70
2023/06/08 00:42:51;;;;;;;;;;;19.40;66.00;;;;;;5025458;28;1414;-71
2023/06/08 00:45:16;;;;;;;;;;;19.40;66.00;;;;;;5024478;28;1333;-70
2023/06/08 00:47:42;;;;;;;;;;;19.40;66.00;;;;;;5025352;28;1418;-70
2023/06/08 00:50:08;;;;;;;;;;;19.50;66.10;;;;;;5023867;28;1546;-68
2023/06/08 00:52:33;;;;;;;;;;;19.40;66.00;;;;;;5028417;28;1380;-71
2023/06/08 00:55:00;;;;;;;;;;;19.40;66.00;;;;;;5028550;28;1902;-71
2023/06/08 00:57:28;;;;;;;;;;;19.40;66.00;;;;;;5029201;28;820;-69
2023/06/08 00:59:53;;;;;;;;;;;19.40;66.00;;;;;;5020148;28;886;-70
2023/06/08 01:02:19;;;;;;;;;;;19.40;66.00;;;;;;5029779;28;924;-70
2023/06/08 01:04:45;;;;;;;;;;;19.40;66.00;;;;;;5029144;28;1259;-70
2023/06/08 01:07:14;;;;;;;;;;;19.40;66.10;;;;;;5026977;28;904;-70
2023/06/08 01:09:42;;;;;;;;;;;19.40;66.00;;;;;;5028631;28;892;-70
2023/06/08 01:12:11;;;;;;;;;;;19.40;66.00;;;;;;5028657;28;895;-71
2023/06/08 01:14:50;;;;;;;;;;;19.40;66.00;;;;;;5027441;28;1902;-70
2023/06/08 01:17:18;;;;;;;;;;;19.40;66.10;;;;;;5028709;28;888;-70
2023/06/08 01:19:43;;;;;;;;;;;19.40;66.10;;;;;;5028907;28;892;-70
2023/06/08 01:22:10;;;;;;;;;;;19.40;66.00;;;;;;5027381;28;1022;-70
2023/06/08 01:24:36;;;;;;;;;;;19.40;66.10;;;;;;5025968;28;1261;-71
2023/06/08 01:27:06;;;;;;;;;;;19.40;66.10;;;;;;5025550;28;955;-70
2023/06/08 01:29:33;;;;;;;;;;;19.40;66.10;;;;;;5028317;28;908;-71
2023/06/08 01:31:59;;;;;;;;;;;19.40;66.10;;;;;;5021626;28;1204;-70
2023/06/08 01:34:25;;;;;;;;;;;19.40;66.10;;;;;;5026861;28;1969;-71
2023/06/08 01:37:01;;;;;;;;;;;19.40;66.10;;;;;;5027348;28;903;-70
2023/06/08 01:39:36;;;;;;;;;;;19.40;66.00;;;;;;5026395;28;891;-70
2023/06/08 01:42:05;;;;;;;;;;;19.40;66.10;;;;;;5029430;28;796;-70
2023/06/08 01:44:31;;;;;;;;;;;19.40;66.10;;;;;;5026703;28;1286;-70
2023/06/08 01:46:58;;;;;;;;;;;19.40;66.10;;;;;;5026083;28;794;-70
2023/06/08 01:49:25;;;;;;;;;;;19.40;66.10;;;;;;5025194;28;1108;-70
2023/06/08 01:51:50;;;;;;;;;;;19.40;66.10;;;;;;5023383;28;899;-70
2023/06/08 01:54:16;;;;;;;;;;;19.40;66.10;;;;;;5020166;28;1903;-70
2023/06/08 01:56:41;;;;;;;;;;;19.40;66.10;;;;;;5028827;28;1006;-71
2023/06/08 01:59:07;;;;;;;;;;;19.40;66.10;;;;;;5029458;28;879;-70
2023/06/08 02:01:32;;;;;;;;;;;19.40;66.10;;;;;;5027959;28;804;-70
2023/06/08 02:03:57;;;;;;;;;;;19.40;66.10;;;;;;5029229;28;1191;-70
2023/06/08 02:06:23;;;;;;;;;;;19.40;66.10;;;;;;5028094;28;983;-70
2023/06/08 02:08:48;;;;;;;;;;;19.40;66.10;;;;;;5027487;28;939;-70
2023/06/08 02:11:14;;;;;;;;;;;19.40;66.10;;;;;;5027927;28;901;-70
2023/06/08 02:13:42;;;;;;;;;;;19.40;66.10;;;;;;5028571;28;1348;-70
2023/06/08 02:16:08;;;;;;;;;;;19.40;66.10;;;;;;5025898;28;1926;-70
2023/06/08 02:18:39;;;;;;;;;;;19.40;66.10;;;;;;5028644;28;812;-70
2023/06/08 02:21:04;;;;;;;;;;;19.40;66.10;;;;;;5028159;28;904;-70
2023/06/08 02:23:30;;;;;;;;;;;19.40;66.10;;;;;;5028330;28;1340;-70
2023/06/08 02:25:55;;;;;;;;;;;19.40;66.10;;;;;;5028374;28;943;-70
2023/06/08 02:28:21;;;;;;;;;;;19.40;66.10;;;;;;5026021;28;808;-70
2023/06/08 02:30:46;;;;;;;;;;;19.40;66.10;;;;;;5026841;28;1073;-70
2023/06/08 02:33:13;;;;;;;;;;;19.40;66.10;;;;;;5025215;28;1482;-71
2023/06/08 02:35:39;;;;;;;;;;;19.40;66.20;;;;;;5026255;28;1963;-70
2023/06/08 02:38:04;;;;;;;;;;;19.50;66.20;;;;;;5029244;28;856;-68
2023/06/08 02:40:30;;;;;;;;;;;19.40;66.10;;;;;;5028681;28;1070;-70
2023/06/08 02:42:56;;;;;;;;;;;19.40;66.10;;;;;;5028407;28;1315;-72
2023/06/08 02:45:21;;;;;;;;;;;19.40;66.10;;;;;;5027550;28;1249;-70
2023/06/08 02:47:46;;;;;;;;;;;19.40;66.10;;;;;;5028400;28;949;-70
2023/06/08 02:50:12;;;;;;;;;;;19.40;66.10;;;;;;5028373;28;1503;-72
2023/06/08 02:52:38;;;;;;;;;;;19.40;66.10;;;;;;5025786;28;1700;-73
2023/06/08 02:55:03;;;;;;;;;;;19.40;66.10;;;;;;5024021;28;1890;-71
2023/06/08 02:57:29;;;;;;;;;;;19.40;66.20;;;;;;5025196;28;1300;-71
2023/06/08 02:59:55;;;;;;;;;;;19.40;66.10;;;;;;5027072;28;1425;-70
2023/06/08 03:02:20;;;;;;;;;;;19.50;66.20;;;;;;5023986;28;1416;-71
2023/06/08 03:04:46;;;;;;;;;;;19.40;66.10;;;;;;5028390;28;1410;-71
2023/06/08 03:07:15;;;;;;;;;;;19.40;66.10;;;;;;5027928;28;823;-69
2023/06/08 03:09:40;;;;;;;;;;;19.40;66.10;;;;;;5023777;28;1043;-71
2023/06/08 03:12:08;;;;;;;;;;;19.40;66.10;;;;;;5027585;28;868;-71
2023/06/08 03:14:35;;;;;;;;;;;19.40;66.10;;;;;;5027547;28;1971;-70
2023/06/08 03:17:02;;;;;;;;;;;19.50;66.20;;;;;;5027132;28;862;-71
2023/06/08 03:19:30;;;;;;;;;;;19.40;66.10;;;;;;5024676;28;949;-70
2023/06/08 03:21:58;;;;;;;;;;;19.40;66.20;;;;;;5025753;28;859;-70
2023/06/08 03:24:24;;;;;;;;;;;19.50;66.20;;;;;;5024217;28;1292;-70
2023/06/08 03:26:49;;;;;;;;;;;19.50;66.20;;;;;;5027884;28;1021;-71
2023/06/08 03:29:15;;;;;;;;;;;19.40;66.20;;;;;;5027572;28;1030;-70
2023/06/08 03:31:40;;;;;;;;;;;19.50;66.20;;;;;;5030205;28;918;-71
2023/06/08 03:34:06;;;;;;;;;;;19.40;66.20;;;;;;5031176;28;1972;-70
2023/06/08 03:36:35;;;;;;;;;;;19.40;66.20;;;;;;5031404;28;804;-71
2023/06/08 03:39:04;;;;;;;;;;;19.40;66.10;;;;;;5031675;28;863;-69
2023/06/08 03:41:30;;;;;;;;;;;19.40;66.20;;;;;;5029429;28;915;-71
2023/06/08 03:43:55;;;;;;;;;;;19.50;66.20;;;;;;5014996;28;1328;-71
2023/06/08 03:46:21;;;;;;;;;;;19.40;66.20;;;;;;5033037;28;1289;-70
2023/06/08 03:48:47;;;;;;;;;;;19.50;66.20;;;;;;5031777;28;982;-71
2023/06/08 03:51:13;;;;;;;;;;;19.50;66.20;;;;;;5030242;28;883;-71
2023/06/08 03:53:38;;;;;;;;;;;19.40;66.20;;;;;;5032670;28;1771;-71
2023/06/08 03:56:04;;;;;;;;;;;19.50;66.30;;;;;;5031487;28;1977;-71
2023/06/08 03:58:32;;;;;;;;;;;19.40;66.20;;;;;;5031356;28;872;-71
2023/06/08 04:00:58;;;;;;;;;;;19.40;66.20;;;;;;5030331;28;823;-71
2023/06/08 04:03:26;;;;;;;;;;;19.40;66.20;;;;;;5031320;28;1496;-71
2023/06/08 04:05:52;;;;;;;;;;;19.50;66.30;;;;;;5028803;28;954;-71
2023/06/08 04:08:18;;;;;;;;;;;19.40;66.30;;;;;;5029254;28;828;-71
2023/06/08 04:10:43;;;;;;;;;;;19.40;66.20;;;;;;5029383;28;820;-71
2023/06/08 04:13:09;;;;;;;;;;;19.40;66.20;;;;;;5031092;28;1256;-71
2023/06/08 04:15:35;;;;;;;;;;;19.40;66.40;;;;;;5030918;28;1969;-71
2023/06/08 04:18:02;;;;;;;;;;;19.50;66.30;;;;;;5027106;28;880;-70
2023/06/08 04:20:27;;;;;;;;;;;19.50;66.30;;;;;;5030998;28;852;-71
2023/06/08 04:22:53;;;;;;;;;;;19.40;66.20;;;;;;5028194;28;1306;-71
2023/06/08 04:25:19;;;;;;;;;;;19.50;66.30;;;;;;5030350;28;1090;-72
2023/06/08 04:27:45;;;;;;;;;;;19.40;66.20;;;;;;5029992;28;1236;-71
2023/06/08 04:30:11;;;;;;;;;;;19.50;66.30;;;;;;5028942;28;975;-71
2023/06/08 04:32:37;;;;;;;;;;;19.40;66.20;;;;;;5030372;28;923;-69
2023/06/08 04:35:03;;;;;;;;;;;19.40;66.30;;;;;;5030320;28;1906;-69
2023/06/08 04:37:28;;;;;;;;;;;19.40;66.20;;;;;;5029067;28;824;-68
2023/06/08 04:39:56;;;;;;;;;;;19.40;66.20;;;;;;5029577;28;963;-68
2023/06/08 04:42:23;;;;;;;;;;;19.40;66.30;;;;;;5028851;28;856;-69
2023/06/08 04:44:50;;;;;;;;;;;19.40;66.30;;;;;;5030284;28;1336;-68
2023/06/08 04:47:16;;;;;;;;;;;19.40;66.20;;;;;;5029617;28;919;-68
2023/06/08 04:49:42;;;;;;;;;;;19.40;66.20;;;;;;5029091;28;891;-72
2023/06/08 04:52:09;;;;;;;;;;;19.40;66.20;;;;;;5028058;28;805;-71
2023/06/08 04:54:36;;;;;;;;;;;19.40;66.30;;;;;;5029773;28;1910;-72
2023/06/08 04:57:03;;;;;;;;;;;19.40;66.30;;;;;;5029913;28;961;-71
2023/06/08 04:59:29;;;;;;;;;;;19.40;66.20;;;;;;5029017;28;851;-69
2023/06/08 05:01:55;;;;;;;;;;;19.40;66.20;;;;;;5025219;28;880;-70
2023/06/08 05:04:20;;;;;;;;;;;19.40;66.30;;;;;;5028411;28;1226;-70
2023/06/08 05:06:46;;;;;;;;;;;19.40;67.00;;;;;;5022223;28;892;-70
2023/06/08 05:09:12;;;;;;;;;;;19.40;66.20;;;;;;5030465;28;1030;-70
2023/06/08 05:11:38;;;;;;;;;;;19.40;66.20;;;;;;5028867;28;840;-69
2023/06/08 05:14:03;;;;;;;;;;;19.40;66.20;;;;;;5028884;28;1969;-68
2023/06/08 05:16:29;;;;;;;;;;;19.40;66.20;;;;;;5030214;28;1163;-68
2023/06/08 05:18:54;;;;;;;;;;;19.40;66.30;;;;;;5028479;28;1061;-68
2023/06/08 05:21:19;;;;;;;;;;;19.40;66.20;;;;;;5027066;28;874;-70
2023/06/08 05:23:45;;;;;;;;;;;19.40;66.30;;;;;;5028634;28;1343;-70
2023/06/08 05:26:10;;;;;;;;;;;19.50;66.30;;;;;;5028893;28;814;-71
2023/06/08 05:28:36;;;;;;;;;;;19.40;66.20;;;;;;5027731;28;1053;-70
2023/06/08 05:31:02;;;;;;;;;;;19.40;66.30;;;;;;5024941;28;904;-68
2023/06/08 05:33:27;;;;;;;;;;;19.40;66.30;;;;;;5023854;28;1330;-69
2023/06/08 05:35:52;;;;;;;;;;;19.40;66.30;;;;;;5031275;28;1961;-69
2023/06/08 05:38:20;;;;;;;;;;;19.40;66.30;;;;;;5030607;28;998;-69
2023/06/08 05:40:45;;;;;;;;;;;19.50;66.30;;;;;;5033682;28;926;-70
2023/06/08 05:43:11;;;;;;;;;;;19.40;66.30;;;;;;5032495;28;1205;-68
2023/06/08 05:45:36;;;;;;;;;;;19.50;66.30;;;;;;5026417;28;953;-69
2023/06/08 05:48:02;;;;;;;;;;;19.50;66.30;;;;;;5031643;28;962;-70
2023/06/08 05:50:27;;;;;;;;;;;19.50;66.30;;;;;;5028353;28;1037;-69
2023/06/08 05:52:53;;;;;;;;;;;19.50;66.30;;;;;;5030733;28;1231;-69
2023/06/08 05:55:18;;;;;;;;;;;19.40;66.30;;;;;;5031098;28;1969;-69
2023/06/08 05:57:43;;;;;;;;;;;19.50;66.40;;;;;;5031627;28;809;-70
2023/06/08 06:00:11;;;;;;;;;;;19.40;66.30;;;;;;5029311;28;895;-69
2023/06/08 06:02:37;;;;;;;;;;;19.40;66.30;;;;;;5030563;28;824;-70
2023/06/08 06:05:03;;;;;;;;;;;19.40;66.30;;;;;;5029273;28;1264;-71
2023/06/08 06:07:29;;;;;;;;;;;19.40;66.30;;;;;;5026804;28;873;-70
2023/06/08 06:09:54;;;;;;;;;;;19.40;66.30;;;;;;5028321;28;860;-71
2023/06/08 06:12:20;;;;;;;;;;;19.50;66.50;;;;;;5026941;28;1166;-70
2023/06/08 06:14:45;;;;;;;;;;;19.50;66.40;;;;;;5027631;28;1894;-69
2023/06/08 06:17:11;;;;;;;;;;;19.50;66.40;;;;;;5029016;28;855;-70
2023/06/08 06:19:37;;;;;;;;;;;19.50;66.40;;;;;;5028645;28;823;-71
2023/06/08 06:22:04;;;;;;;;;;;19.40;66.30;;;;;;5028069;28;864;-70
2023/06/08 06:24:29;;;;;;;;;;;19.40;66.30;;;;;;5029068;28;1349;-70
2023/06/08 06:26:55;;;;;;;;;;;19.50;66.40;;;;;;5027383;28;1355;-70
2023/06/08 06:29:20;;;;;;;;;;;19.40;66.30;;;;;;5029085;28;907;-70
2023/06/08 06:31:46;;;;;;;;;;;19.40;66.30;;;;;;5027875;28;1204;-69
2023/06/08 06:34:11;;;;;;;;;;;19.50;66.40;;;;;;5028393;28;1898;-70
2023/06/08 06:36:37;;;;;;;;;;;19.50;66.40;;;;;;5029410;28;824;-69
2023/06/08 06:39:02;;;;;;;;;;;19.50;66.40;;;;;;5029339;28;898;-69
2023/06/08 06:41:27;;;;;;;;;;;19.40;66.30;;;;;;5026564;28;908;-70
2023/06/08 06:43:53;;;;;;;;;;;19.50;66.40;;;;;;5027827;28;1231;-70
2023/06/08 06:46:20;;;;;;;;;;;19.50;66.50;;;;;;5028419;28;1486;-70
2023/06/08 06:48:46;;;;;;;;;;;19.40;66.30;;;;;;5027844;28;844;-70
2023/06/08 06:51:11;;;;;;;;;;;19.40;66.30;;;;;;5026037;28;887;-70
2023/06/08 06:53:37;;;;;;;;;;;19.50;66.40;;;;;;5030630;28;1778;-70
2023/06/08 06:56:02;;;;;;;;;;;19.50;66.40;;;;;;5026024;28;1902;-70
2023/06/08 06:58:28;;;;;;;;;;;19.50;66.40;;;;;;5029171;28;820;-70
2023/06/08 07:00:55;;;;;;;;;;;19.50;66.40;;;;;;5024818;28;888;-70
2023/06/08 07:03:21;;;;;;;;;;;19.40;66.30;;;;;;5028908;28;1358;-70
2023/06/08 07:05:47;;;;;;;;;;;19.50;66.40;;;;;;5028349;28;824;-72
2023/06/08 07:08:12;;;;;;;;;;;19.50;66.40;;;;;;5030945;28;887;-71
2023/06/08 07:10:38;;;;;;;;;;;19.50;66.40;;;;;;5031498;28;829;-73
2023/06/08 07:13:03;;;;;;;;;;;19.50;66.40;;;;;;5031109;28;1258;-72
2023/06/08 07:15:30;;;;;;;;;;;19.40;66.30;;;;;;5031495;28;1910;-70
2023/06/08 07:17:55;;;;;;;;;;;19.40;66.30;;;;;;5029538;28;917;-71
2023/06/08 07:20:21;;;;;;;;;;;19.50;66.40;;;;;;5030112;28;872;-70
2023/06/08 07:22:46;;;;;;;;;;;19.50;66.40;;;;;;5029104;28;1126;-69
2023/06/08 07:25:13;;;;;;;;;;;19.40;66.30;;;;;;5031720;28;1197;-72
2023/06/08 07:27:38;;;;;;;;;;;19.50;67.20;;;;;;5031649;28;899;-71
2023/06/08 07:30:04;;;;;;;;;;;19.50;66.40;;;;;;5032218;28;916;-70
2023/06/08 07:32:30;;;;;;;;;;;19.50;66.40;;;;;;5030830;28;919;-70
2023/06/08 07:34:56;;;;;;;;;;;19.50;67.20;;;;;;5030401;28;2014;-71
2023/06/08 07:37:21;;;;;;;;;;;19.50;66.40;;;;;;5030740;28;1353;-71
2023/06/08 07:39:47;;;;;;;;;;;19.50;66.40;;;;;;5032886;28;1327;-69
2023/06/08 07:42:12;;;;;;;;;;;19.50;66.40;;;;;;5031010;28;943;-70
2023/06/08 07:44:38;;;;;;;;;;;19.50;66.40;;;;;;5028636;28;1341;-70
2023/06/08 07:47:03;;;;;;;;;;;19.50;66.40;;;;;;5029044;28;871;-70
2023/06/08 07:49:29;;;;;;;;;;;19.50;66.40;;;;;;5027356;28;1023;-71
2023/06/08 07:51:54;;;;;;;;;;;19.50;66.40;;;;;;5030872;28;836;-71
2023/06/08 07:54:21;;;;;;;;;;;19.50;66.40;;;;;;5031394;28;1906;-70
2023/06/08 07:56:47;;;;;;;;;;;19.50;66.40;;;;;;5030909;28;839;-69
2023/06/08 07:59:12;;;;;;;;;;;19.50;66.40;;;;;;5028931;28;942;-69
2023/06/08 08:01:38;;;;;;;;;;;19.50;66.40;;;;;;5031785;28;918;-69
2023/06/08 08:04:03;;;;;;;;;;;19.50;67.20;;;;;;5027163;28;1334;-69
2023/06/08 08:06:29;;;;;;;;;;;19.50;66.40;;;;;;5031520;28;916;-69
2023/06/08 08:08:54;;;;;;;;;;;19.50;66.40;;;;;;5029469;28;990;-69
2023/06/08 08:11:20;;;;;;;;;;;19.50;66.40;;;;;;5031892;28;880;-69
2023/06/08 08:13:45;;;;;;;;;;;19.50;66.40;;;;;;5028471;28;1239;-69
2023/06/08 08:16:11;;;;;;;;;;;19.50;66.40;;;;;;5026393;28;1910;-69
2023/06/08 08:18:36;;;;;;;;;;;19.50;66.40;;;;;;5029961;28;903;-69
2023/06/08 08:21:02;;;;;;;;;;;19.50;66.40;;;;;;5031517;28;892;-69
2023/06/08 08:23:27;;;;;;;;;;;19.50;66.40;;;;;;5029676;28;1376;-69
2023/06/08 08:25:53;;;;;;;;;;;19.50;66.40;;;;;;5030271;28;1097;-70
2023/06/08 08:28:19;;;;;;;;;;;19.50;66.40;;;;;;5030841;28;980;-69
2023/06/08 08:30:44;;;;;;;;;;;19.50;66.40;;;;;;5030845;28;909;-69
2023/06/08 08:33:10;;;;;;;;;;;19.50;66.40;;;;;;5031332;28;1259;-69
2023/06/08 08:35:36;;;;;;;;;;;19.50;66.40;;;;;;5028169;28;1951;-71
2023/06/08 08:38:01;;;;;;;;;;;19.50;66.40;;;;;;5030901;28;926;-70
2023/06/08 08:40:27;;;;;;;;;;;19.50;66.40;;;;;;5030982;28;853;-70
2023/06/08 08:42:54;;;;;;;;;;;19.50;66.40;;;;;;5026433;28;1286;-70
2023/06/08 08:45:21;;;;;;;;;;;19.50;66.40;;;;;;5027516;28;1325;-69
2023/06/08 08:47:48;;;;;;;;;;;19.50;66.40;;;;;;5027208;28;828;-69
2023/06/08 08:50:17;;;;;;;;;;;19.50;66.40;;;;;;5030831;28;840;-69
2023/06/08 08:52:44;;;;;;;;;;;19.50;66.40;;;;;;5029728;28;889;-69
2023/06/08 08:55:10;;;;;;;;;;;19.50;66.40;;;;;;5030740;28;1906;-69
2023/06/08 08:57:36;;;;;;;;;;;19.50;66.40;;;;;;5027637;28;840;-70
2023/06/08 09:00:03;;;;;;;;;;;19.50;66.40;;;;;;5028470;28;1596;-69
2023/06/08 09:02:28;;;;;;;;;;;19.50;66.40;;;;;;5026979;28;1384;-70
2023/06/08 09:04:54;;;;;;;;;;;19.50;66.40;;;;;;5028635;28;1299;-70
2023/06/08 09:07:20;;;;;;;;;;;19.50;67.20;;;;;;5030720;28;883;-70
2023/06/08 09:10:05;;;;;;;;;;;19.50;66.40;;;;;;5029940;28;860;-70
2023/06/08 09:12:37;;;;;;;;;;;19.50;66.40;;;;;;5028369;28;891;-70
2023/06/08 09:15:03;;;;;;;;;;;19.50;66.40;;;;;;5030976;28;1907;-70
2023/06/08 09:17:37;;;;;;;;;;;19.50;66.40;;;;;;5030209;28;951;-70
2023/06/08 09:20:03;;;;;;;;;;;19.50;66.40;;;;;;5029188;28;844;-70
2023/06/08 09:22:29;;;;;;;;;;;19.50;66.40;;;;;;5030935;28;829;-69
2023/06/08 09:24:55;;;;;;;;;;;19.50;66.30;;;;;;5019304;28;1346;-70
2023/06/08 09:27:25;;;;;;;;;;;19.50;66.40;;;;;;5030045;28;1632;-70
2023/06/08 09:29:52;;;;;;;;;;;19.50;66.40;;;;;;5026976;28;855;-69
2023/06/08 09:32:20;;;;;;;;;;;19.50;66.40;;;;;;5027296;28;883;-69
2023/06/08 09:34:49;;;;;;;;;;;19.50;66.40;;;;;;5018087;28;1969;-69
2023/06/08 09:37:14;;;;;;;;;;;19.50;66.40;;;;;;5029060;28;1015;-70
2023/06/08 09:39:40;;;;;;;;;;;19.50;66.40;;;;;;5024772;28;920;-69
2023/06/08 09:42:06;;;;;;;;;;;19.50;66.40;;;;;;5028592;28;820;-69
2023/06/08 09:44:31;;;;;;;;;;;19.50;66.40;;;;;;5026541;28;1343;-70
2023/06/08 09:46:57;;;;;;;;;;;19.50;66.40;;;;;;5029665;28;886;-70
2023/06/08 09:49:22;;;;;;;;;;;19.50;66.40;;;;;;5029467;28;816;-70
2023/06/08 09:51:51;;;;;;;;;;;19.50;66.40;;;;;;5028367;28;891;-69
2023/06/08 09:54:17;;;;;;;;;;;19.50;66.40;;;;;;5027519;28;1955;-69
2023/06/08 09:56:55;;;;;;;;;;;19.50;66.40;;;;;;5027247;28;840;-69
2023/06/08 09:59:22;;;;;;;;;;;19.50;66.40;;;;;;5025977;28;1753;-70
2023/06/08 10:01:54;;;;;;;;;;;19.50;66.40;;;;;;5029164;28;927;-69
2023/06/08 10:04:20;;;;;;;;;;;19.50;66.40;;;;;;5028084;28;1411;-69
2023/06/08 10:06:46;;;;;;;;;;;19.50;66.40;;;;;;5028046;28;870;-70
2023/06/08 10:09:12;;;;;;;;;;;19.50;66.40;;;;;;5026042;28;986;-70
2023/06/08 10:11:38;;;;;;;;;;;19.50;66.40;;;;;;5028767;28;888;-69
2023/06/08 10:14:03;;;;;;;;;;;19.50;66.30;;;;;;5027957;28;1292;-71
2023/06/08 10:16:29;;;;;;;;;;;19.50;66.40;;;;;;5020344;28;2005;-71
2023/06/08 10:18:54;;;;;;;;;;;19.50;66.40;;;;;;5019218;28;971;-68
2023/06/08 10:21:20;;;;;;;;;;;19.50;66.30;;;;;;5027786;28;947;-71
2023/06/08 10:23:45;;;;;;;;;;;19.50;66.30;;;;;;5012266;28;1340;-71
2023/06/08 10:26:11;;;;;;;;;;;19.50;66.30;;;;;;5025859;28;904;-71
2023/06/08 10:28:37;;;;;;;;;;;19.50;66.30;;;;;;5011061;28;851;-71
2023/06/08 10:31:22;;;;;;;;;;;19.50;66.30;;;;;;5026891;28;1473;-71
2023/06/08 10:33:47;;;;;;;;;;;19.50;66.40;;;;;;5022343;28;1351;-71
2023/06/08 10:36:13;;;;;;;;;;;19.50;66.40;;;;;;5021093;28;1909;-71
2023/06/08 10:38:59;;;;;;;;;;;19.50;66.30;;;;;;5022744;28;1343;-71
2023/06/08 10:41:38;;;;;;;;;;;19.50;66.30;;;;;;5007994;28;1635;-70
2023/06/08 10:44:04;;;;;;;;;;;19.50;66.30;;;;;;5027265;28;1424;-71
2023/06/08 10:46:42;;;;;;;;;;;19.50;66.40;;;;;;5026468;28;1394;-70
2023/06/08 10:49:07;;;;;;;;;;;19.50;66.30;;;;;;5021561;28;1414;-71
2023/06/08 10:51:43;;;;;;;;;;;19.50;66.40;;;;;;5027060;28;804;-71
2023/06/08 10:54:09;;;;;;;;;;;19.50;66.30;;;;;;5026700;28;1456;-71
2023/06/08 10:56:44;;;;;;;;;;;19.50;66.30;;;;;;5025244;28;1909;-71
2023/06/08 10:59:09;;;;;;;;;;;19.50;66.40;;;;;;5027376;28;886;-71
2023/06/08 11:01:35;;;;;;;;;;;19.50;66.40;;;;;;5028557;28;886;-71
2023/06/08 11:04:01;;;;;;;;;;;19.50;66.30;;;;;;5028395;28;1272;-71
2023/06/08 11:06:29;;;;;;;;;;;19.50;66.40;;;;;;5020261;28;924;-71
2023/06/08 11:08:55;;;;;;;;;;;19.50;66.30;;;;;;5025211;28;831;-70
2023/06/08 11:11:20;;;;;;;;;;;19.50;66.40;;;;;;5028303;28;824;-71
2023/06/08 11:13:46;;;;;;;;;;;19.50;66.30;;;;;;5024407;28;1346;-71
2023/06/08 11:16:11;;;;;;;;;;;19.50;66.30;;;;;;5027009;28;1918;-70
2023/06/08 11:18:36;;;;;;;;;;;19.50;66.40;;;;;;5026834;28;947;-70
2023/06/08 11:21:02;;;;;;;;;;;19.50;66.30;;;;;;5022114;28;847;-71
2023/06/08 11:23:31;;;;;;;;;;;19.50;66.30;;;;;;5025312;28;1288;-71
2023/06/08 11:25:56;;;;;;;;;;;19.50;66.30;;;;;;5028880;28;1041;-71
2023/06/08 11:28:22;;;;;;;;;;;19.50;66.30;;;;;;5027493;28;973;-72
2023/06/08 11:30:47;;;;;;;;;;;19.50;66.30;;;;;;5026802;28;829;-71
2023/06/08 11:33:17;;;;;;;;;;;19.50;66.30;;;;;;5026169;28;1200;-71
2023/06/08 11:35:43;;;;;;;;;;;19.50;66.30;;;;;;5026051;28;1938;-71
2023/06/08 11:38:08;;;;;;;;;;;19.50;66.30;;;;;;5027835;28;839;-71
2023/06/08 11:40:34;;;;;;;;;;;19.50;66.30;;;;;;5028173;28;852;-71
2023/06/08 11:43:00;;;;;;;;;;;19.50;66.40;;;;;;5027202;28;1334;-71
2023/06/08 11:45:26;;;;;;;;;;;19.50;66.30;;;;;;5027428;28;1249;-71
2023/06/08 11:47:54;;;;;;;;;;;19.50;66.30;;;;;;5026241;28;1018;-71
2023/06/08 11:50:20;;;;;;;;;;;19.50;66.30;;;;;;5021892;28;916;-71
2023/06/08 11:52:46;;;;;;;;;;;19.50;66.30;;;;;;5025428;28;791;-72
2023/06/08 11:55:12;;;;;;;;;;;19.50;66.30;;;;;;5031647;28;1906;-71
2023/06/08 11:57:44;;;;;;;;;;;19.50;66.30;;;;;;5030233;28;943;-72
2023/06/08 12:00:14;;;;;;;;;;;19.50;66.30;;;;;;5028755;28;863;-71
2023/06/08 12:02:39;;;;;;;;;;;19.50;66.40;;;;;;5028371;28;952;-71
2023/06/08 12:05:05;;;;;;;;;;;19.50;66.30;;;;;;5029388;28;2197;-71
2023/06/08 12:07:32;;;;;;;;;;;19.50;66.30;;;;;;5030968;28;1459;-71
2023/06/08 12:09:58;;;;;;;;;;;19.50;66.40;;;;;;5027938;28;1993;-71
2023/06/08 12:12:27;;;;;;;;;;;19.50;66.30;;;;;;5030201;28;1245;-70
2023/06/08 12:14:52;;;;;;;;;;;19.50;66.30;;;;;;5029936;28;1971;-71
2023/06/08 12:17:18;;;;;;;;;;;19.50;66.30;;;;;;5029485;28;1476;-71
2023/06/08 12:19:43;;;;;;;;;;;19.50;66.30;;;;;;5029548;28;1695;-71
2023/06/08 12:22:09;;;;;;;;;;;19.50;66.30;;;;;;5028833;28;962;-69
2023/06/08 12:24:35;;;;;;;;;;;19.50;66.40;;;;;;5028703;28;1261;-71
2023/06/08 12:27:00;;;;;;;;;;;19.50;66.30;;;;;;5031611;28;851;-71
2023/06/08 12:29:26;;;;;;;;;;;19.50;66.30;;;;;;5030216;28;883;-71
2023/06/08 12:31:51;;;;;;;;;;;19.50;66.30;;;;;;5028382;28;1002;-70
2023/06/08 12:34:17;;;;;;;;;;;19.50;66.30;;;;;;5030846;28;1234;-71
2023/06/08 12:36:43;;;;;;;;;;;19.50;66.40;;;;;;5031093;28;1902;-71
2023/06/08 12:39:08;;;;;;;;;;;19.50;66.40;;;;;;5031085;28;800;-71
2023/06/08 12:41:34;;;;;;;;;;;19.50;66.40;;;;;;5026763;28;1627;-70
2023/06/08 12:43:59;;;;;;;;;;;19.50;66.40;;;;;;5030324;28;1268;-71
2023/06/08 12:46:25;;;;;;;;;;;19.50;66.40;;;;;;5030690;28;890;-71
2023/06/08 12:48:52;;;;;;;;;;;19.50;66.30;;;;;;5028297;28;871;-70
2023/06/08 12:51:17;;;;;;;;;;;19.50;66.30;;;;;;5029650;28;880;-71
2023/06/08 12:53:44;;;;;;;;;;;19.50;66.30;;;;;;5032520;28;1236;-70
2023/06/08 12:56:09;;;;;;;;;;;19.50;66.40;;;;;;5034404;28;1899;-71
2023/06/08 12:58:35;;;;;;;;;;;19.50;66.30;;;;;;5028336;28;919;-70
2023/06/08 13:01:00;;;;;;;;;;;19.50;66.40;;;;;;5030229;28;827;-70
2023/06/08 13:03:26;;;;;;;;;;;19.50;66.40;;;;;;5028277;28;1367;-71
2023/06/08 13:05:51;;;;;;;;;;;19.50;66.40;;;;;;5029906;28;890;-71
2023/06/08 13:08:17;;;;;;;;;;;19.50;66.40;;;;;;5030018;28;951;-70
2023/06/08 13:10:44;;;;;;;;;;;19.50;66.40;;;;;;5028764;28;895;-70
2023/06/08 13:13:09;;;;;;;;;;;19.50;66.40;;;;;;5029862;28;1252;-70
2023/06/08 13:15:35;;;;;;;;;;;19.50;66.40;;;;;;5030127;28;1963;-71
2023/06/08 13:18:01;;;;;;;;;;;19.50;66.30;;;;;;5029413;28;891;-71
2023/06/08 13:20:28;;;;;;;;;;;19.50;66.40;;;;;;5028702;28;1156;-71
2023/06/08 13:22:54;;;;;;;;;;;19.50;66.40;;;;;;5028196;28;1369;-71
2023/06/08 13:25:20;;;;;;;;;;;19.50;66.40;;;;;;5029917;28;872;-71
2023/06/08 13:27:46;;;;;;;;;;;19.50;67.10;;;;;;5027280;28;879;-70
2023/06/08 13:30:11;;;;;;;;;;;19.50;66.40;;;;;;5028512;28;820;-70
2023/06/08 13:32:37;;;;;;;;;;;19.50;66.40;;;;;;5030694;28;816;-70
2023/06/08 13:35:02;;;;;;;;;;;19.50;66.40;;;;;;5029912;28;1910;-70
2023/06/08 13:37:28;;;;;;;;;;;19.50;66.40;;;;;;5028600;28;824;-70
2023/06/08 13:39:53;;;;;;;;;;;19.50;66.40;;;;;;5027662;28;1113;-70
2023/06/08 13:42:19;;;;;;;;;;;19.50;66.40;;;;;;5029336;28;1011;-70
2023/06/08 13:44:47;;;;;;;;;;;19.50;66.40;;;;;;5028481;28;1358;-70
2023/06/08 13:47:12;;;;;;;;;;;19.50;66.40;;;;;;5027722;28;859;-70
2023/06/08 13:49:42;;;;;;;;;;;19.60;66.40;;;;;;5029952;28;1021;-70
2023/06/08 13:52:08;;;;;;;;;;;19.60;66.40;;;;;;5027567;28;881;-70
2023/06/08 13:54:33;;;;;;;;;;;19.60;66.40;;;;;;5027013;28;1922;-70
2023/06/08 13:56:59;;;;;;;;;;;19.60;66.40;;;;;;5029854;28;1078;-70
2023/06/08 13:59:25;;;;;;;;;;;19.50;66.40;;;;;;5029847;28;853;-70
2023/06/08 14:01:50;;;;;;;;;;;19.50;66.40;;;;;;5029682;28;839;-70
2023/06/08 14:04:16;;;;;;;;;;;19.60;66.40;;;;;;5028983;28;1269;-71
2023/06/08 14:06:44;;;;;;;;;;;19.60;66.40;;;;;;5027857;28;987;-70
2023/06/08 14:09:10;;;;;;;;;;;19.60;66.40;;;;;;5029349;28;873;-70
2023/06/08 14:11:35;;;;;;;;;;;19.60;66.40;;;;;;5028153;28;793;-71
2023/06/08 14:14:01;;;;;;;;;;;19.60;66.40;;;;;;5028438;28;1341;-71
2023/06/08 14:16:28;;;;;;;;;;;19.60;66.50;;;;;;5024590;28;1898;-70
2023/06/08 14:18:53;;;;;;;;;;;19.60;66.50;;;;;;5028038;28;884;-71
2023/06/08 14:21:19;;;;;;;;;;;19.50;66.40;;;;;;5028144;28;953;-71
2023/06/08 14:23:44;;;;;;;;;;;19.60;66.50;;;;;;5029043;28;1787;-70
2023/06/08 14:26:10;;;;;;;;;;;19.60;66.40;;;;;;5028548;28;872;-70
2023/06/08 14:28:36;;;;;;;;;;;19.60;66.40;;;;;;5027252;28;836;-71
2023/06/08 14:31:02;;;;;;;;;;;19.60;66.50;;;;;;5025575;28;828;-71